createdAt,value
2023-02-07T08:12:04.907Z,54.40
2023-02-07T08:13:06.809Z,54.69
2023-02-07T08:17:34.811Z,57.94
2023-02-07T08:18:36.889Z,58.44
2023-02-07T08:22:10.984Z,58.98
2023-02-07T08:25:31.624Z,57.14
2023-02-07T08:28:34.780Z,56.39
2023-02-07T08:31:19.270Z,55.36
2023-02-07T08:32:20.672Z,54.63
2023-02-07T08:34:52.108Z,55.08
2023-02-07T08:35:53.532Z,54.75
2023-02-07T08:36:54.925Z,54.76
2023-02-07T08:37:58.189Z,53.27
2023-02-07T08:38:59.939Z,52.90
2023-02-07T08:40:01.616Z,52.81
2023-02-07T08:41:03.380Z,52.66
2023-02-07T08:42:08.270Z,52.50
2023-02-07T08:43:12.280Z,52.67
2023-02-07T08:44:13.803Z,51.77
2023-02-07T08:45:17.613Z,51.66
2023-02-07T08:46:19.180Z,50.73
2023-02-07T08:47:20.628Z,50.73
2023-02-07T08:48:22.424Z,50.13
2023-02-07T08:49:23.780Z,50.08
2023-02-07T08:50:25.279Z,50.47
2023-02-07T08:51:26.760Z,49.57
2023-02-07T08:52:29.777Z,50.08
2023-02-07T08:53:31.282Z,51.17
2023-02-07T08:54:32.843Z,51.39
2023-02-07T08:55:34.311Z,50.41
2023-02-07T08:56:35.717Z,49.80
2023-02-07T08:57:37.826Z,50.11
2023-02-07T08:58:40.890Z,49.77
2023-02-07T08:59:42.346Z,49.66
2023-02-07T09:00:44.463Z,49.77
2023-02-07T09:01:45.854Z,50.13
2023-02-07T09:02:47.241Z,46.88
2023-02-07T09:03:48.591Z,49.51
2023-02-07T09:04:50.098Z,49.18
2023-02-07T09:05:57.430Z,47.89
2023-02-07T09:06:58.792Z,48.04
2023-02-07T09:08:01.361Z,47.58
2023-02-07T09:09:02.757Z,48.56
2023-02-07T09:10:06.717Z,47.91
2023-02-07T09:11:09.466Z,47.36
2023-02-07T09:12:11.576Z,44.55
2023-02-07T09:13:12.917Z,47.43
2023-02-07T09:14:14.374Z,47.33
2023-02-07T09:15:15.833Z,48.71
2023-02-07T09:16:17.330Z,47.63
2023-02-07T09:17:20.004Z,47.77
2023-02-07T09:18:22.082Z,46.91
2023-02-07T09:19:23.729Z,45.23
2023-02-07T09:20:25.124Z,46.46
2023-02-07T09:21:26.585Z,44.75
2023-02-07T09:22:28.092Z,43.94
2023-02-07T09:23:29.610Z,44.66
2023-02-07T09:24:31.057Z,44.71
2023-02-07T09:25:32.758Z,45.02
2023-02-07T09:26:35.273Z,44.87
2023-02-07T09:27:36.722Z,43.94
2023-02-07T09:28:39.345Z,43.43
2023-02-07T09:29:40.843Z,43.97
2023-02-07T09:30:44.031Z,44.53
2023-02-07T09:31:45.986Z,44.79
2023-02-07T09:32:47.477Z,44.86
2023-02-07T09:33:48.893Z,44.47
2023-02-07T09:34:52.469Z,45.35
2023-02-07T09:35:55.089Z,42.93
2023-02-07T09:36:56.589Z,42.84
2023-02-07T09:37:57.984Z,45.51
2023-02-07T09:39:00.686Z,45.03
2023-02-07T09:40:02.131Z,42.92
2023-02-07T09:41:03.769Z,42.60
2023-02-07T09:42:08.346Z,43.59
2023-02-07T09:43:38.514Z,44.72
2023-02-07T09:45:04.684Z,44.09
2023-02-07T09:46:21.476Z,46.28
2023-02-07T09:47:24.981Z,45.31
2023-02-07T09:48:37.383Z,43.67
2023-02-07T09:49:51.082Z,43.35
2023-02-07T09:51:00.628Z,43.95
2023-02-07T09:52:05.285Z,45.41
2023-02-07T09:53:12.482Z,44.30
2023-02-07T09:54:29.035Z,43.49
2023-02-07T09:55:42.385Z,42.41
2023-02-07T09:56:44.464Z,42.75
2023-02-07T09:57:50.191Z,42.14
2023-02-07T09:58:59.362Z,42.71
2023-02-07T10:00:21.833Z,41.42
2023-02-07T10:01:32.531Z,41.94
2023-02-07T10:02:48.626Z,41.51
2023-02-07T10:04:22.002Z,41.53
2023-02-07T10:05:30.148Z,40.72
2023-02-07T10:06:32.991Z,41.20
2023-02-07T10:07:34.656Z,41.49
2023-02-07T10:08:41.228Z,41.07
2023-02-07T10:09:44.808Z,41.21
2023-02-07T10:11:17.011Z,39.57
2023-02-07T10:12:33.546Z,40.11
2023-02-07T10:13:44.299Z,39.96
2023-02-07T10:15:08.136Z,41.60
2023-02-07T10:16:29.330Z,41.22
2023-02-07T10:17:47.029Z,40.91
2023-02-07T10:19:04.287Z,39.58
2023-02-07T10:20:26.539Z,39.26
2023-02-07T10:21:38.327Z,39.43
2023-02-07T10:22:45.534Z,39.15
2023-02-07T10:23:58.812Z,38.88
2023-02-07T10:25:16.268Z,39.62
2023-02-07T10:26:30.013Z,39.23
2023-02-07T10:27:41.253Z,38.96
2023-02-07T10:29:09.790Z,39.40
2023-02-07T10:30:28.946Z,41.72
2023-02-07T10:31:33.487Z,42.75
2023-02-07T10:32:38.189Z,40.87
2023-02-07T10:33:47.636Z,42.39
2023-02-07T10:34:53.551Z,42.36
2023-02-07T10:35:55.551Z,42.21
2023-02-07T10:36:58.389Z,41.10
2023-02-07T10:38:02.031Z,40.36
2023-02-07T10:39:13.980Z,40.55
2023-02-07T10:40:29.134Z,42.04
2023-02-07T10:41:39.276Z,41.01
2023-02-07T10:42:46.076Z,39.99
2023-02-07T10:43:48.051Z,39.91
2023-02-07T10:44:49.804Z,38.33
2023-02-07T10:46:00.364Z,38.19
2023-02-07T10:47:08.981Z,38.07
2023-02-07T10:48:15.389Z,36.94
2023-02-07T10:49:25.655Z,39.59
2023-02-07T10:50:30.357Z,39.82
2023-02-07T10:51:38.630Z,39.03
2023-02-07T10:52:44.907Z,39.81
2023-02-07T10:54:00.537Z,39.83
2023-02-07T10:55:06.366Z,38.37
2023-02-07T10:56:16.506Z,38.51
2023-02-07T10:57:20.038Z,40.38
2023-02-07T10:58:25.065Z,38.01
2023-02-07T10:59:40.570Z,39.81
2023-02-07T11:00:48.678Z,38.54
2023-02-07T11:01:54.229Z,38.38
2023-02-07T11:03:03.213Z,39.48
2023-02-07T11:04:23.310Z,37.91
2023-02-07T11:05:24.641Z,37.28
2023-02-07T11:06:30.294Z,37.48
2023-02-07T11:07:42.615Z,34.11
2023-02-07T11:08:48.728Z,35.13
2023-02-07T11:09:50.199Z,36.13
2023-02-07T11:10:55.974Z,37.37
2023-02-07T11:11:58.580Z,37.48
2023-02-07T11:13:01.185Z,37.06
2023-02-07T11:14:05.775Z,39.06
2023-02-07T11:15:17.154Z,38.14
2023-02-07T11:16:21.487Z,38.01
2023-02-07T11:17:23.007Z,35.50
2023-02-07T11:18:44.831Z,39.45
2023-02-07T11:19:46.867Z,40.74
2023-02-07T11:20:52.471Z,39.58
2023-02-07T11:22:22.968Z,41.01
2023-02-07T11:23:25.263Z,42.28
2023-02-07T11:24:31.106Z,40.44
2023-02-07T11:25:38.469Z,42.72
2023-02-07T11:27:07.907Z,41.84
2023-02-07T11:28:20.915Z,41.45
2023-02-07T11:29:24.549Z,40.01
2023-02-07T11:30:28.215Z,37.27
2023-02-07T11:31:33.109Z,39.00
2023-02-07T11:32:36.417Z,39.01
2023-02-07T11:33:37.903Z,39.24
2023-02-07T11:34:52.904Z,37.79
2023-02-07T11:36:10.688Z,40.41
2023-02-07T11:37:21.226Z,41.20
2023-02-07T11:38:22.665Z,41.16
2023-02-07T11:39:24.144Z,41.50
2023-02-07T11:40:36.314Z,40.79
2023-02-07T11:41:38.809Z,38.01
2023-02-07T11:42:41.044Z,38.70
2023-02-07T11:43:52.698Z,37.18
2023-02-07T11:44:54.156Z,38.28
2023-02-07T11:46:09.957Z,38.60
2023-02-07T11:47:19.141Z,40.18
2023-02-07T11:48:29.756Z,38.51
2023-02-07T11:49:37.252Z,39.11
2023-02-07T11:50:43.336Z,38.78
2023-02-07T11:51:44.992Z,38.13
2023-02-07T11:52:51.686Z,39.34
2023-02-07T11:53:57.030Z,40.07
2023-02-07T11:55:02.486Z,40.91
2023-02-07T11:56:04.737Z,40.67
2023-02-07T11:57:17.580Z,43.98
2023-02-07T11:58:46.532Z,41.79
2023-02-07T12:00:01.460Z,41.46
2023-02-07T12:01:05.686Z,40.08
2023-02-07T12:02:21.007Z,40.65
2023-02-07T12:03:28.637Z,41.16
2023-02-07T12:04:38.909Z,41.48
2023-02-07T12:05:45.306Z,41.32
2023-02-07T12:06:58.810Z,39.24
2023-02-07T12:08:04.916Z,39.68
2023-02-07T12:09:21.274Z,40.12
2023-02-07T12:10:36.258Z,40.31
2023-02-07T12:11:41.129Z,42.37
2023-02-07T12:12:48.887Z,41.49
2023-02-07T12:13:59.292Z,40.22
2023-02-07T12:15:14.083Z,39.65
2023-02-07T12:16:29.598Z,38.34
2023-02-07T12:17:47.745Z,37.68
2023-02-07T12:19:10.461Z,38.33
2023-02-07T12:20:34.552Z,42.21
2023-02-07T12:21:46.719Z,41.08
2023-02-07T12:23:06.432Z,41.76
2023-02-07T12:24:23.004Z,41.72
2023-02-07T12:25:32.000Z,42.45
2023-02-07T12:26:40.898Z,42.89
2023-02-07T12:27:45.723Z,43.44
2023-02-07T12:29:01.288Z,42.55
2023-02-07T12:30:26.867Z,40.20
2023-02-07T12:31:41.474Z,42.64
2023-02-07T12:33:24.332Z,41.97
2023-02-07T12:34:44.115Z,42.40
2023-02-07T12:36:01.069Z,43.23
2023-02-07T12:37:39.895Z,42.57
2023-02-07T12:38:51.542Z,42.19
2023-02-07T12:40:02.495Z,42.44
2023-02-07T12:41:15.354Z,41.16
2023-02-07T12:42:22.537Z,41.03
2023-02-07T12:43:31.952Z,40.69
2023-02-07T12:44:41.102Z,42.52
2023-02-07T12:45:51.839Z,42.01
2023-02-07T12:47:08.264Z,39.81
2023-02-07T12:48:28.332Z,40.04
2023-02-07T12:49:38.913Z,39.65
2023-02-07T12:50:54.968Z,39.38
2023-02-07T12:52:10.149Z,39.28
2023-02-07T12:53:45.682Z,38.13
2023-02-07T12:55:02.314Z,39.44
2023-02-07T12:56:23.307Z,38.04
2023-02-07T12:57:32.261Z,40.41
2023-02-07T12:58:42.917Z,42.12
2023-02-07T12:59:57.250Z,43.88
2023-02-07T13:01:23.116Z,44.05
2023-02-07T13:02:57.777Z,42.34
2023-02-07T13:04:08.180Z,44.51
2023-02-07T13:05:15.314Z,43.61
2023-02-07T13:06:39.684Z,40.65
2023-02-07T13:08:13.530Z,39.74
2023-02-07T13:09:24.759Z,39.97
2023-02-07T13:10:38.482Z,39.13
2023-02-07T13:12:07.569Z,39.42
2023-02-07T13:13:20.910Z,39.19
2023-02-07T13:14:40.319Z,40.92
2023-02-07T13:15:49.065Z,39.48
2023-02-07T13:17:24.216Z,39.07
2023-02-07T13:18:44.331Z,38.57
2023-02-07T13:20:11.149Z,40.69
2023-02-07T13:21:25.126Z,40.49
2023-02-07T13:23:00.357Z,43.35
2023-02-07T13:24:04.584Z,41.72
2023-02-07T13:25:13.703Z,41.06
2023-02-07T13:26:20.203Z,40.37
2023-02-07T13:27:24.538Z,39.75
2023-02-07T13:28:34.390Z,42.37
2023-02-07T13:29:37.951Z,43.24
2023-02-07T13:30:41.184Z,43.06
2023-02-07T13:31:56.144Z,42.14
2023-02-07T13:33:04.328Z,41.29
2023-02-07T13:34:14.183Z,43.42
2023-02-07T13:35:23.684Z,42.39
2023-02-07T13:36:42.514Z,42.12
2023-02-07T13:37:49.978Z,41.60
2023-02-07T13:38:56.665Z,40.12
2023-02-07T13:40:19.407Z,39.84
2023-02-07T13:41:46.149Z,42.89
2023-02-07T13:43:11.590Z,41.67
2023-02-07T13:44:28.440Z,40.86
2023-02-07T13:46:03.669Z,43.09
2023-02-07T13:47:23.064Z,44.58
2023-02-07T13:48:32.832Z,42.39
2023-02-07T13:49:45.682Z,42.29
2023-02-07T13:51:01.707Z,41.43
2023-02-07T13:52:15.098Z,42.52
2023-02-07T13:53:50.719Z,40.67
2023-02-07T13:55:07.431Z,40.21
2023-02-07T13:56:31.484Z,40.21
2023-02-07T13:57:54.299Z,39.84
2023-02-07T13:59:14.699Z,39.73
2023-02-07T14:00:19.558Z,39.43
2023-02-07T14:01:32.213Z,40.14
2023-02-07T14:02:42.120Z,39.67
2023-02-07T14:04:02.111Z,39.71
2023-02-07T14:05:09.757Z,39.97
2023-02-07T14:06:26.999Z,39.82
2023-02-07T14:07:31.253Z,39.74
2023-02-07T14:08:32.732Z,39.52
2023-02-07T14:09:56.794Z,40.24
2023-02-07T14:10:58.892Z,40.11
2023-02-07T14:12:22.557Z,39.86
2023-02-07T14:13:26.704Z,39.55
2023-02-07T14:14:34.789Z,38.57
2023-02-07T14:15:38.863Z,39.32
2023-02-07T14:17:09.023Z,39.78
2023-02-07T14:18:41.343Z,40.00
2023-02-07T14:19:43.114Z,39.69
2023-02-07T14:20:44.452Z,40.39
2023-02-07T14:21:46.013Z,40.22
2023-02-07T14:22:53.870Z,39.20
2023-02-07T14:24:01.133Z,39.24
2023-02-07T14:25:05.526Z,39.71
2023-02-07T14:26:36.636Z,40.73
2023-02-07T14:27:43.549Z,40.49
2023-02-07T14:28:46.225Z,40.54
2023-02-07T14:30:12.094Z,39.91
2023-02-07T14:31:23.568Z,39.81
2023-02-07T14:32:28.362Z,39.76
2023-02-07T14:33:36.724Z,39.57
2023-02-07T14:35:16.710Z,40.06
2023-02-07T14:36:24.019Z,39.46
2023-02-07T14:38:02.728Z,39.73
2023-02-07T14:39:27.856Z,39.77
2023-02-07T14:40:44.656Z,39.84
2023-02-07T14:41:49.077Z,39.90
2023-02-07T14:42:57.003Z,40.31
2023-02-07T14:44:09.280Z,39.58
2023-02-07T14:45:20.218Z,39.89
2023-02-07T14:46:39.773Z,39.52
2023-02-07T14:47:41.338Z,39.93
2023-02-07T14:48:53.955Z,39.51
2023-02-07T14:50:00.141Z,39.53
2023-02-07T14:51:02.706Z,39.85
2023-02-07T14:52:08.473Z,39.56
2023-02-07T14:53:14.689Z,39.17
2023-02-07T14:54:25.089Z,39.29
2023-02-07T14:55:45.914Z,39.27
2023-02-07T14:57:02.156Z,39.35
2023-02-07T14:58:08.560Z,39.42
2023-02-07T14:59:16.993Z,39.82
2023-02-07T15:00:18.560Z,39.55
2023-02-07T15:01:21.381Z,39.12
2023-02-07T15:02:28.878Z,39.63
2023-02-07T15:03:31.805Z,39.75
2023-02-07T15:04:36.083Z,39.29
2023-02-07T15:05:39.903Z,39.27
2023-02-07T15:06:44.327Z,38.96
2023-02-07T15:07:47.127Z,40.12
2023-02-07T15:09:00.518Z,39.59
2023-02-07T15:10:13.222Z,40.05
2023-02-07T15:11:14.788Z,39.86
2023-02-07T15:12:27.651Z,40.03
2023-02-07T15:13:44.367Z,39.68
2023-02-07T15:14:46.266Z,40.26
2023-02-07T15:15:53.385Z,40.06
2023-02-07T15:16:55.497Z,40.06
2023-02-07T15:18:00.889Z,39.45
2023-02-07T15:19:12.321Z,40.08
2023-02-07T15:20:20.126Z,40.00
2023-02-07T15:21:38.642Z,40.48
2023-02-07T15:22:41.141Z,40.72
2023-02-07T15:23:42.611Z,40.42
2023-02-07T15:24:51.478Z,40.30
2023-02-07T15:25:53.422Z,40.29
2023-02-07T15:27:03.918Z,41.08
2023-02-07T15:28:11.032Z,40.54
2023-02-07T15:29:26.417Z,39.60
2023-02-07T15:30:28.167Z,41.12
2023-02-07T15:31:30.449Z,41.83
2023-02-07T15:32:41.252Z,42.08
2023-02-07T15:33:48.742Z,41.39
2023-02-07T15:34:50.158Z,41.47
2023-02-07T15:35:51.730Z,41.35
2023-02-07T15:36:53.427Z,40.95
2023-02-07T15:38:12.733Z,41.11
2023-02-07T15:39:17.043Z,41.44
2023-02-07T15:40:26.374Z,40.92
2023-02-07T15:41:28.570Z,40.96
2023-02-07T15:42:30.527Z,41.00
2023-02-07T15:43:34.441Z,41.00
2023-02-07T15:44:49.153Z,40.68
2023-02-07T15:46:03.963Z,40.42
2023-02-07T15:47:07.310Z,40.73
2023-02-07T15:48:16.026Z,41.21
2023-02-07T15:49:30.956Z,41.44
2023-02-07T15:50:32.622Z,41.64
2023-02-07T15:51:41.165Z,41.74
2023-02-07T15:52:45.704Z,41.93
2023-02-07T15:53:52.817Z,41.91
2023-02-07T15:54:55.429Z,41.17
2023-02-07T15:55:57.651Z,41.44
2023-02-07T15:56:59.937Z,41.97
2023-02-07T15:58:05.581Z,41.64
2023-02-07T15:59:16.459Z,42.33
2023-02-07T16:00:29.321Z,42.34
2023-02-07T16:01:30.913Z,43.09
2023-02-07T16:02:35.862Z,42.78
2023-02-07T16:03:41.620Z,42.83
2023-02-07T16:04:44.817Z,42.62
2023-02-07T16:05:46.506Z,43.46
2023-02-07T16:06:58.367Z,43.78
2023-02-07T16:08:01.648Z,43.72
2023-02-07T16:09:04.492Z,43.92
2023-02-07T16:10:24.512Z,44.57
2023-02-07T16:11:25.818Z,44.70
2023-02-07T16:12:33.108Z,45.31
2023-02-07T16:13:34.488Z,45.56
2023-02-07T16:14:40.595Z,45.82
2023-02-07T16:16:20.315Z,46.10
2023-02-07T16:17:24.356Z,46.39
2023-02-07T16:18:49.184Z,46.87
2023-02-07T16:19:51.034Z,46.71
2023-02-07T16:20:52.383Z,47.67
2023-02-07T16:22:16.656Z,47.99
2023-02-07T16:23:18.243Z,48.47
2023-02-07T16:24:23.178Z,48.25
2023-02-07T16:25:29.397Z,48.88
2023-02-07T16:26:30.949Z,49.66
2023-02-07T16:27:34.370Z,49.87
2023-02-07T16:28:35.896Z,50.75
2023-02-07T16:29:37.363Z,51.48
2023-02-07T16:30:41.046Z,51.81
2023-02-07T16:31:43.742Z,52.18
2023-02-07T16:32:45.970Z,52.32
2023-02-07T16:33:47.370Z,53.29
2023-02-07T16:34:59.359Z,52.98
2023-02-07T16:36:01.455Z,53.51
2023-02-07T16:37:03.004Z,53.28
2023-02-07T16:38:04.432Z,53.13
2023-02-07T16:39:06.401Z,53.18
2023-02-07T16:40:09.244Z,53.44
2023-02-07T16:41:21.290Z,53.47
2023-02-07T16:42:22.855Z,53.40
2023-02-07T16:43:34.557Z,53.77
2023-02-07T16:44:36.680Z,54.44
2023-02-07T16:45:39.129Z,54.92
2023-02-07T16:46:41.478Z,55.04
